sensor_id;sensor_type;location;lat;lon;timestamp;P1;durP1;ratioP1;P2;durP2;ratioP2
7845;SDS011;3968;51.424;6.788;2022-10-31T00:01:32;21.00;;;11.10;;
7845;SDS011;3968;51.424;6.788;2022-10-31T00:03:59;22.07;;;11.10;;
7845;SDS011;3968;51.424;6.788;2022-10-31T00:06:26;24.33;;;11.47;;
7845;SDS011;3968;51.424;6.788;2022-10-31T00:08:53;20.77;;;11.55;;
7845;SDS011;3968;51.424;6.788;2022-10-31T00:11:20;23.87;;;11.83;;
7845;SDS011;3968;51.424;6.788;2022-10-31T00:13:46;20.60;;;11.73;;
7845;SDS011;3968;51.424;6.788;2022-10-31T00:16:16;17.83;;;11.63;;
7845;SDS011;3968;51.424;6.788;2022-10-31T00:18:42;18.00;;;12.50;;
7845;SDS011;3968;51.424;6.788;2022-10-31T00:21:09;20.23;;;11.87;;
7845;SDS011;3968;51.424;6.788;2022-10-31T00:23:34;21.52;;;11.82;;
7845;SDS011;3968;51.424;6.788;2022-10-31T00:26:04;20.20;;;12.40;;
7845;SDS011;3968;51.424;6.788;2022-10-31T00:28:30;20.67;;;11.60;;
7845;SDS011;3968;51.424;6.788;2022-10-31T00:31:03;22.30;;;11.57;;
7845;SDS011;3968;51.424;6.788;2022-10-31T00:33:32;20.90;;;11.80;;
7845;SDS011;3968;51.424;6.788;2022-10-31T00:35:58;23.73;;;11.97;;
7845;SDS011;3968;51.424;6.788;2022-10-31T00:38:24;19.53;;;10.87;;
7845;SDS011;3968;51.424;6.788;2022-10-31T00:40:50;17.53;;;11.23;;
7845;SDS011;3968;51.424;6.788;2022-10-31T00:43:15;22.23;;;11.10;;
7845;SDS011;3968;51.424;6.788;2022-10-31T00:45:41;21.13;;;11.63;;
7845;SDS011;3968;51.424;6.788;2022-10-31T00:48:08;19.40;;;11.23;;
7845;SDS011;3968;51.424;6.788;2022-10-31T00:50:34;25.33;;;11.03;;
7845;SDS011;3968;51.424;6.788;2022-10-31T00:52:59;20.07;;;11.70;;
7845;SDS011;3968;51.424;6.788;2022-10-31T00:55:25;24.23;;;11.77;;
7845;SDS011;3968;51.424;6.788;2022-10-31T00:57:51;17.40;;;10.30;;
7845;SDS011;3968;51.424;6.788;2022-10-31T01:00:16;18.37;;;12.00;;
7845;SDS011;3968;51.424;6.788;2022-10-31T01:02:42;20.83;;;12.13;;
7845;SDS011;3968;51.424;6.788;2022-10-31T01:05:08;16.80;;;10.03;;
7845;SDS011;3968;51.424;6.788;2022-10-31T01:07:37;19.93;;;11.87;;
7845;SDS011;3968;51.424;6.788;2022-10-31T01:10:05;18.00;;;10.20;;
7845;SDS011;3968;51.424;6.788;2022-10-31T01:12:42;19.00;;;11.27;;
7845;SDS011;3968;51.424;6.788;2022-10-31T01:15:09;18.43;;;10.63;;
7845;SDS011;3968;51.424;6.788;2022-10-31T01:17:37;18.80;;;10.77;;
7845;SDS011;3968;51.424;6.788;2022-10-31T01:20:03;20.77;;;10.93;;
7845;SDS011;3968;51.424;6.788;2022-10-31T01:22:30;20.30;;;11.23;;
7845;SDS011;3968;51.424;6.788;2022-10-31T01:24:56;20.05;;;12.00;;
7845;SDS011;3968;51.424;6.788;2022-10-31T01:27:21;26.87;;;11.43;;
7845;SDS011;3968;51.424;6.788;2022-10-31T01:29:47;21.40;;;11.87;;
7845;SDS011;3968;51.424;6.788;2022-10-31T01:32:13;22.13;;;11.30;;
7845;SDS011;3968;51.424;6.788;2022-10-31T01:34:38;21.83;;;12.03;;
7845;SDS011;3968;51.424;6.788;2022-10-31T01:37:04;22.05;;;11.27;;
7845;SDS011;3968;51.424;6.788;2022-10-31T01:39:30;19.10;;;11.03;;
7845;SDS011;3968;51.424;6.788;2022-10-31T01:41:55;19.83;;;12.47;;
7845;SDS011;3968;51.424;6.788;2022-10-31T01:46:51;18.30;;;11.40;;
7845;SDS011;3968;51.424;6.788;2022-10-31T01:49:33;21.53;;;11.97;;
7845;SDS011;3968;51.424;6.788;2022-10-31T01:54:36;29.07;;;12.83;;
7845;SDS011;3968;51.424;6.788;2022-10-31T01:57:05;23.70;;;11.60;;
7845;SDS011;3968;51.424;6.788;2022-10-31T01:59:34;18.10;;;11.97;;
7845;SDS011;3968;51.424;6.788;2022-10-31T02:02:04;24.93;;;12.77;;
7845;SDS011;3968;51.424;6.788;2022-10-31T02:04:31;21.50;;;13.10;;
7845;SDS011;3968;51.424;6.788;2022-10-31T02:07:02;17.50;;;12.47;;
7845;SDS011;3968;51.424;6.788;2022-10-31T02:09:31;17.73;;;12.17;;
7845;SDS011;3968;51.424;6.788;2022-10-31T02:11:58;24.40;;;11.90;;
7845;SDS011;3968;51.424;6.788;2022-10-31T02:14:25;21.47;;;11.97;;
7845;SDS011;3968;51.424;6.788;2022-10-31T02:16:53;23.00;;;13.07;;
7845;SDS011;3968;51.424;6.788;2022-10-31T02:19:23;20.03;;;12.83;;
7845;SDS011;3968;51.424;6.788;2022-10-31T02:22:13;23.10;;;13.37;;
7845;SDS011;3968;51.424;6.788;2022-10-31T02:24:58;20.90;;;13.03;;
7845;SDS011;3968;51.424;6.788;2022-10-31T02:27:55;20.73;;;13.60;;
7845;SDS011;3968;51.424;6.788;2022-10-31T02:31:16;20.57;;;14.03;;
7845;SDS011;3968;51.424;6.788;2022-10-31T02:49:28;23.23;;;11.87;;
7845;SDS011;3968;51.424;6.788;2022-10-31T02:51:55;18.87;;;11.60;;
7845;SDS011;3968;51.424;6.788;2022-10-31T02:54:24;23.40;;;11.83;;
7845;SDS011;3968;51.424;6.788;2022-10-31T02:56:53;21.90;;;11.83;;
7845;SDS011;3968;51.424;6.788;2022-10-31T02:59:24;19.83;;;11.90;;
7845;SDS011;3968;51.424;6.788;2022-10-31T03:10:03;19.57;;;12.17;;
7845;SDS011;3968;51.424;6.788;2022-10-31T03:15:51;27.63;;;12.93;;
7845;SDS011;3968;51.424;6.788;2022-10-31T03:18:31;22.60;;;12.37;;
7845;SDS011;3968;51.424;6.788;2022-10-31T03:21:04;23.77;;;13.30;;
7845;SDS011;3968;51.424;6.788;2022-10-31T03:23:37;18.90;;;12.53;;
7845;SDS011;3968;51.424;6.788;2022-10-31T03:26:05;19.40;;;12.80;;
7845;SDS011;3968;51.424;6.788;2022-10-31T03:28:54;23.40;;;13.27;;
7845;SDS011;3968;51.424;6.788;2022-10-31T03:31:23;23.33;;;13.23;;
7845;SDS011;3968;51.424;6.788;2022-10-31T03:33:52;23.47;;;12.77;;
7845;SDS011;3968;51.424;6.788;2022-10-31T03:36:21;19.43;;;12.97;;
7845;SDS011;3968;51.424;6.788;2022-10-31T03:38:48;27.77;;;13.70;;
7845;SDS011;3968;51.424;6.788;2022-10-31T03:41:16;22.17;;;12.70;;
7845;SDS011;3968;51.424;6.788;2022-10-31T03:43:53;21.33;;;11.80;;
7845;SDS011;3968;51.424;6.788;2022-10-31T03:46:23;24.97;;;12.93;;
7845;SDS011;3968;51.424;6.788;2022-10-31T03:48:49;22.37;;;13.00;;
7845;SDS011;3968;51.424;6.788;2022-10-31T03:51:21;23.57;;;12.70;;
7845;SDS011;3968;51.424;6.788;2022-10-31T03:56:25;22.50;;;12.57;;
7845;SDS011;3968;51.424;6.788;2022-10-31T03:59:15;20.83;;;12.83;;
7845;SDS011;3968;51.424;6.788;2022-10-31T04:01:46;20.33;;;12.63;;
7845;SDS011;3968;51.424;6.788;2022-10-31T04:04:15;23.80;;;13.37;;
7845;SDS011;3968;51.424;6.788;2022-10-31T04:06:41;19.03;;;12.67;;
7845;SDS011;3968;51.424;6.788;2022-10-31T04:09:09;23.93;;;14.10;;
7845;SDS011;3968;51.424;6.788;2022-10-31T04:11:40;21.60;;;13.30;;
7845;SDS011;3968;51.424;6.788;2022-10-31T04:14:10;25.27;;;12.93;;
7845;SDS011;3968;51.424;6.788;2022-10-31T04:16:38;20.57;;;11.77;;
7845;SDS011;3968;51.424;6.788;2022-10-31T04:19:06;21.20;;;12.33;;
7845;SDS011;3968;51.424;6.788;2022-10-31T04:21:32;20.97;;;12.07;;
7845;SDS011;3968;51.424;6.788;2022-10-31T04:23:58;20.40;;;12.30;;
7845;SDS011;3968;51.424;6.788;2022-10-31T04:26:23;20.90;;;11.60;;
7845;SDS011;3968;51.424;6.788;2022-10-31T04:28:49;17.50;;;12.77;;
7845;SDS011;3968;51.424;6.788;2022-10-31T04:31:15;19.93;;;13.47;;
7845;SDS011;3968;51.424;6.788;2022-10-31T04:33:40;19.87;;;12.63;;
7845;SDS011;3968;51.424;6.788;2022-10-31T04:36:06;22.50;;;11.87;;
7845;SDS011;3968;51.424;6.788;2022-10-31T04:38:32;19.80;;;11.43;;
7845;SDS011;3968;51.424;6.788;2022-10-31T04:40:58;22.27;;;13.03;;
7845;SDS011;3968;51.424;6.788;2022-10-31T04:43:24;19.10;;;12.33;;
7845;SDS011;3968;51.424;6.788;2022-10-31T04:45:50;19.27;;;12.33;;
7845;SDS011;3968;51.424;6.788;2022-10-31T04:48:15;24.40;;;12.90;;
7845;SDS011;3968;51.424;6.788;2022-10-31T04:50:41;20.57;;;12.77;;
7845;SDS011;3968;51.424;6.788;2022-10-31T04:53:07;19.83;;;12.27;;
7845;SDS011;3968;51.424;6.788;2022-10-31T04:55:32;17.93;;;13.03;;
7845;SDS011;3968;51.424;6.788;2022-10-31T04:57:58;23.67;;;12.53;;
7845;SDS011;3968;51.424;6.788;2022-10-31T05:00:24;18.53;;;11.97;;
7845;SDS011;3968;51.424;6.788;2022-10-31T05:02:50;21.10;;;12.10;;
7845;SDS011;3968;51.424;6.788;2022-10-31T05:05:18;19.63;;;13.40;;
7845;SDS011;3968;51.424;6.788;2022-10-31T05:07:46;22.00;;;13.30;;
7845;SDS011;3968;51.424;6.788;2022-10-31T05:10:14;21.33;;;13.10;;
7845;SDS011;3968;51.424;6.788;2022-10-31T05:12:48;18.43;;;13.03;;
7845;SDS011;3968;51.424;6.788;2022-10-31T05:15:15;21.23;;;12.23;;
7845;SDS011;3968;51.424;6.788;2022-10-31T05:17:42;22.27;;;13.33;;
7845;SDS011;3968;51.424;6.788;2022-10-31T05:20:09;20.37;;;12.80;;
7845;SDS011;3968;51.424;6.788;2022-10-31T05:22:36;23.97;;;13.33;;
7845;SDS011;3968;51.424;6.788;2022-10-31T05:25:02;24.67;;;13.13;;
7845;SDS011;3968;51.424;6.788;2022-10-31T05:27:28;23.27;;;12.57;;
7845;SDS011;3968;51.424;6.788;2022-10-31T05:29:53;19.23;;;13.10;;
7845;SDS011;3968;51.424;6.788;2022-10-31T05:32:19;22.63;;;13.43;;
7845;SDS011;3968;51.424;6.788;2022-10-31T05:34:44;20.67;;;13.20;;
7845;SDS011;3968;51.424;6.788;2022-10-31T05:37:10;22.53;;;13.17;;
7845;SDS011;3968;51.424;6.788;2022-10-31T05:39:36;22.43;;;12.57;;
7845;SDS011;3968;51.424;6.788;2022-10-31T05:42:01;22.20;;;13.17;;
7845;SDS011;3968;51.424;6.788;2022-10-31T05:44:27;27.23;;;13.80;;
7845;SDS011;3968;51.424;6.788;2022-10-31T05:46:53;18.30;;;12.77;;
7845;SDS011;3968;51.424;6.788;2022-10-31T05:49:18;19.90;;;12.83;;
7845;SDS011;3968;51.424;6.788;2022-10-31T05:51:44;18.63;;;13.23;;
7845;SDS011;3968;51.424;6.788;2022-10-31T05:54:09;21.67;;;13.80;;
7845;SDS011;3968;51.424;6.788;2022-10-31T05:56:35;20.60;;;14.47;;
7845;SDS011;3968;51.424;6.788;2022-10-31T05:59:01;26.10;;;14.00;;
7845;SDS011;3968;51.424;6.788;2022-10-31T06:01:26;24.73;;;14.87;;
7845;SDS011;3968;51.424;6.788;2022-10-31T06:03:52;28.30;;;15.10;;
7845;SDS011;3968;51.424;6.788;2022-10-31T06:06:17;28.17;;;14.40;;
7845;SDS011;3968;51.424;6.788;2022-10-31T06:08:43;23.97;;;12.97;;
7845;SDS011;3968;51.424;6.788;2022-10-31T06:11:09;22.10;;;14.03;;
7845;SDS011;3968;51.424;6.788;2022-10-31T06:13:34;23.93;;;13.83;;
7845;SDS011;3968;51.424;6.788;2022-10-31T06:16:00;21.93;;;14.17;;
7845;SDS011;3968;51.424;6.788;2022-10-31T06:18:25;23.53;;;12.43;;
7845;SDS011;3968;51.424;6.788;2022-10-31T06:20:51;20.47;;;12.80;;
7845;SDS011;3968;51.424;6.788;2022-10-31T06:23:16;18.67;;;12.27;;
7845;SDS011;3968;51.424;6.788;2022-10-31T06:25:42;24.53;;;13.80;;
7845;SDS011;3968;51.424;6.788;2022-10-31T06:28:08;23.50;;;13.17;;
7845;SDS011;3968;51.424;6.788;2022-10-31T06:30:33;22.97;;;13.40;;
7845;SDS011;3968;51.424;6.788;2022-10-31T06:33:03;22.37;;;12.27;;
7845;SDS011;3968;51.424;6.788;2022-10-31T06:35:29;18.07;;;12.97;;
7845;SDS011;3968;51.424;6.788;2022-10-31T06:37:55;19.07;;;12.07;;
7845;SDS011;3968;51.424;6.788;2022-10-31T06:40:21;27.87;;;12.73;;
7845;SDS011;3968;51.424;6.788;2022-10-31T06:42:47;21.80;;;13.20;;
7845;SDS011;3968;51.424;6.788;2022-10-31T06:45:20;22.80;;;13.30;;
7845;SDS011;3968;51.424;6.788;2022-10-31T06:47:50;25.07;;;14.13;;
7845;SDS011;3968;51.424;6.788;2022-10-31T06:50:17;24.43;;;13.17;;
7845;SDS011;3968;51.424;6.788;2022-10-31T06:52:43;21.10;;;13.40;;
7845;SDS011;3968;51.424;6.788;2022-10-31T06:55:08;22.40;;;12.87;;
7845;SDS011;3968;51.424;6.788;2022-10-31T06:57:34;26.00;;;12.50;;
7845;SDS011;3968;51.424;6.788;2022-10-31T06:59:59;19.67;;;11.90;;
7845;SDS011;3968;51.424;6.788;2022-10-31T07:02:25;21.97;;;12.63;;
7845;SDS011;3968;51.424;6.788;2022-10-31T07:04:51;19.80;;;12.13;;
7845;SDS011;3968;51.424;6.788;2022-10-31T07:07:16;19.80;;;14.03;;
7845;SDS011;3968;51.424;6.788;2022-10-31T07:09:42;19.93;;;11.50;;
7845;SDS011;3968;51.424;6.788;2022-10-31T07:12:07;28.87;;;15.03;;
7845;SDS011;3968;51.424;6.788;2022-10-31T07:14:33;17.80;;;11.83;;
7845;SDS011;3968;51.424;6.788;2022-10-31T07:16:59;21.07;;;11.50;;
7845;SDS011;3968;51.424;6.788;2022-10-31T07:19:24;19.73;;;12.17;;
7845;SDS011;3968;51.424;6.788;2022-10-31T07:21:50;24.20;;;12.03;;
7845;SDS011;3968;51.424;6.788;2022-10-31T07:24:15;21.80;;;12.00;;
7845;SDS011;3968;51.424;6.788;2022-10-31T07:26:41;23.13;;;12.40;;
7845;SDS011;3968;51.424;6.788;2022-10-31T07:29:07;21.37;;;12.70;;
7845;SDS011;3968;51.424;6.788;2022-10-31T07:31:33;24.40;;;12.73;;
7845;SDS011;3968;51.424;6.788;2022-10-31T07:34:00;24.13;;;12.83;;
7845;SDS011;3968;51.424;6.788;2022-10-31T07:36:26;19.37;;;12.93;;
7845;SDS011;3968;51.424;6.788;2022-10-31T08:35:49;19.40;;;12.23;;
7845;SDS011;3968;51.424;6.788;2022-10-31T08:38:15;19.60;;;11.95;;
7845;SDS011;3968;51.424;6.788;2022-10-31T08:40:41;19.58;;;12.25;;
7845;SDS011;3968;51.424;6.788;2022-10-31T08:43:15;22.63;;;12.75;;
7845;SDS011;3968;51.424;6.788;2022-10-31T08:45:44;20.77;;;12.23;;
7845;SDS011;3968;51.424;6.788;2022-10-31T08:48:14;18.65;;;12.20;;
7845;SDS011;3968;51.424;6.788;2022-10-31T08:50:40;20.55;;;11.80;;
7845;SDS011;3968;51.424;6.788;2022-10-31T08:53:09;19.30;;;12.00;;
7845;SDS011;3968;51.424;6.788;2022-10-31T08:55:45;21.13;;;12.80;;
7845;SDS011;3968;51.424;6.788;2022-10-31T08:58:12;21.90;;;12.85;;
7845;SDS011;3968;51.424;6.788;2022-10-31T09:00:40;17.42;;;13.00;;
7845;SDS011;3968;51.424;6.788;2022-10-31T09:03:08;20.20;;;12.48;;
7845;SDS011;3968;51.424;6.788;2022-10-31T09:05:38;23.73;;;14.63;;
7845;SDS011;3968;51.424;6.788;2022-10-31T09:08:04;24.13;;;13.48;;
7845;SDS011;3968;51.424;6.788;2022-10-31T09:10:31;25.98;;;14.60;;
7845;SDS011;3968;51.424;6.788;2022-10-31T09:12:59;22.58;;;15.07;;
7845;SDS011;3968;51.424;6.788;2022-10-31T09:15:35;19.63;;;13.20;;
7845;SDS011;3968;51.424;6.788;2022-10-31T09:18:06;24.42;;;13.63;;
7845;SDS011;3968;51.424;6.788;2022-10-31T09:20:33;24.45;;;14.27;;
7845;SDS011;3968;51.424;6.788;2022-10-31T09:23:04;27.30;;;14.60;;
7845;SDS011;3968;51.424;6.788;2022-10-31T09:25:35;22.88;;;13.48;;
7845;SDS011;3968;51.424;6.788;2022-10-31T09:28:02;20.23;;;13.38;;
7845;SDS011;3968;51.424;6.788;2022-10-31T09:30:29;22.33;;;14.85;;
7845;SDS011;3968;51.424;6.788;2022-10-31T09:32:58;23.30;;;13.07;;
7845;SDS011;3968;51.424;6.788;2022-10-31T09:35:25;21.77;;;13.68;;
7845;SDS011;3968;51.424;6.788;2022-10-31T09:37:59;28.67;;;13.90;;
7845;SDS011;3968;51.424;6.788;2022-10-31T09:40:47;29.00;;;14.48;;
7845;SDS011;3968;51.424;6.788;2022-10-31T09:43:25;22.98;;;14.65;;
7845;SDS011;3968;51.424;6.788;2022-10-31T09:49:21;26.13;;;14.27;;
7845;SDS011;3968;51.424;6.788;2022-10-31T09:51:58;27.70;;;15.43;;
7845;SDS011;3968;51.424;6.788;2022-10-31T09:54:51;30.20;;;14.32;;
7845;SDS011;3968;51.424;6.788;2022-10-31T09:57:19;26.50;;;14.27;;
7845;SDS011;3968;51.424;6.788;2022-10-31T09:59:53;26.52;;;14.13;;
7845;SDS011;3968;51.424;6.788;2022-10-31T10:02:24;23.95;;;13.80;;
7845;SDS011;3968;51.424;6.788;2022-10-31T10:05:04;42.03;;;14.77;;
7845;SDS011;3968;51.424;6.788;2022-10-31T10:07:40;28.33;;;16.88;;
7845;SDS011;3968;51.424;6.788;2022-10-31T10:21:51;26.33;;;16.80;;
7845;SDS011;3968;51.424;6.788;2022-10-31T10:27:22;30.13;;;18.27;;
7845;SDS011;3968;51.424;6.788;2022-10-31T10:32:29;26.73;;;18.05;;
7845;SDS011;3968;51.424;6.788;2022-10-31T10:35:10;27.33;;;17.55;;
7845;SDS011;3968;51.424;6.788;2022-10-31T10:40:41;27.33;;;17.60;;
7845;SDS011;3968;51.424;6.788;2022-10-31T10:43:19;27.75;;;17.02;;
7845;SDS011;3968;51.424;6.788;2022-10-31T10:49:12;31.25;;;18.30;;
7845;SDS011;3968;51.424;6.788;2022-10-31T10:51:52;29.83;;;18.75;;
7845;SDS011;3968;51.424;6.788;2022-10-31T10:59:39;36.58;;;17.88;;
7845;SDS011;3968;51.424;6.788;2022-10-31T11:02:15;27.75;;;17.90;;
7845;SDS011;3968;51.424;6.788;2022-10-31T11:04:47;28.75;;;17.95;;
7845;SDS011;3968;51.424;6.788;2022-10-31T11:07:19;27.90;;;17.30;;
7845;SDS011;3968;51.424;6.788;2022-10-31T11:09:45;30.52;;;17.15;;
7845;SDS011;3968;51.424;6.788;2022-10-31T11:12:17;35.65;;;19.42;;
7845;SDS011;3968;51.424;6.788;2022-10-31T11:14:48;39.10;;;21.35;;
7845;SDS011;3968;51.424;6.788;2022-10-31T11:17:19;42.38;;;27.90;;
7845;SDS011;3968;51.424;6.788;2022-10-31T11:22:42;25.85;;;16.48;;
7845;SDS011;3968;51.424;6.788;2022-10-31T11:27:44;25.88;;;15.98;;
7845;SDS011;3968;51.424;6.788;2022-10-31T11:30:12;29.42;;;16.10;;
7845;SDS011;3968;51.424;6.788;2022-10-31T11:32:42;26.27;;;15.40;;
7845;SDS011;3968;51.424;6.788;2022-10-31T11:35:12;22.38;;;15.02;;
7845;SDS011;3968;51.424;6.788;2022-10-31T11:37:43;32.38;;;15.65;;
7845;SDS011;3968;51.424;6.788;2022-10-31T11:40:22;24.50;;;14.30;;
7845;SDS011;3968;51.424;6.788;2022-10-31T11:42:50;29.35;;;15.18;;
7845;SDS011;3968;51.424;6.788;2022-10-31T11:47:50;26.08;;;14.70;;
7845;SDS011;3968;51.424;6.788;2022-10-31T11:50:22;24.33;;;13.55;;
7845;SDS011;3968;51.424;6.788;2022-10-31T11:52:50;24.08;;;13.32;;
7845;SDS011;3968;51.424;6.788;2022-10-31T11:57:56;23.35;;;11.82;;
7845;SDS011;3968;51.424;6.788;2022-10-31T12:00:38;25.42;;;13.63;;
7845;SDS011;3968;51.424;6.788;2022-10-31T12:03:20;23.15;;;12.05;;
7845;SDS011;3968;51.424;6.788;2022-10-31T12:06:00;24.67;;;11.82;;
7845;SDS011;3968;51.424;6.788;2022-10-31T12:08:30;26.92;;;13.07;;
7845;SDS011;3968;51.424;6.788;2022-10-31T12:13:37;22.98;;;12.35;;
7845;SDS011;3968;51.424;6.788;2022-10-31T12:24:26;15.63;;;9.48;;
7845;SDS011;3968;51.424;6.788;2022-10-31T12:30:00;20.65;;;9.38;;
7845;SDS011;3968;51.424;6.788;2022-10-31T12:38:39;18.40;;;8.77;;
7845;SDS011;3968;51.424;6.788;2022-10-31T12:41:28;20.85;;;9.45;;
7845;SDS011;3968;51.424;6.788;2022-10-31T12:52:23;15.07;;;8.38;;
7845;SDS011;3968;51.424;6.788;2022-10-31T12:58:02;16.63;;;8.10;;
7845;SDS011;3968;51.424;6.788;2022-10-31T13:00:35;19.05;;;8.85;;
7845;SDS011;3968;51.424;6.788;2022-10-31T13:05:44;21.55;;;8.70;;
7845;SDS011;3968;51.424;6.788;2022-10-31T13:16:33;20.45;;;7.25;;
7845;SDS011;3968;51.424;6.788;2022-10-31T13:19:20;15.40;;;7.70;;
7845;SDS011;3968;51.424;6.788;2022-10-31T13:24:58;14.60;;;8.00;;
7845;SDS011;3968;51.424;6.788;2022-10-31T13:27:36;15.13;;;8.20;;
7845;SDS011;3968;51.424;6.788;2022-10-31T13:30:25;17.08;;;8.00;;
7845;SDS011;3968;51.424;6.788;2022-10-31T13:32:55;18.13;;;8.98;;
7845;SDS011;3968;51.424;6.788;2022-10-31T13:46:34;10.93;;;6.25;;
7845;SDS011;3968;51.424;6.788;2022-10-31T13:49:02;10.88;;;5.57;;
7845;SDS011;3968;51.424;6.788;2022-10-31T13:51:30;14.43;;;5.20;;
7845;SDS011;3968;51.424;6.788;2022-10-31T13:54:06;10.55;;;5.05;;
7845;SDS011;3968;51.424;6.788;2022-10-31T13:56:48;13.13;;;4.75;;
7845;SDS011;3968;51.424;6.788;2022-10-31T13:59:19;10.77;;;4.55;;
7845;SDS011;3968;51.424;6.788;2022-10-31T14:01:57;14.35;;;4.93;;
7845;SDS011;3968;51.424;6.788;2022-10-31T14:04:35;13.52;;;5.38;;
7845;SDS011;3968;51.424;6.788;2022-10-31T14:07:06;12.35;;;5.00;;
7845;SDS011;3968;51.424;6.788;2022-10-31T14:17:52;11.70;;;4.75;;
7845;SDS011;3968;51.424;6.788;2022-10-31T14:20:25;11.38;;;4.53;;
7845;SDS011;3968;51.424;6.788;2022-10-31T14:22:58;11.50;;;4.70;;
7845;SDS011;3968;51.424;6.788;2022-10-31T14:25:28;9.75;;;4.63;;
7845;SDS011;3968;51.424;6.788;2022-10-31T14:28:03;12.68;;;4.63;;
7845;SDS011;3968;51.424;6.788;2022-10-31T14:30:54;10.88;;;4.93;;
7845;SDS011;3968;51.424;6.788;2022-10-31T14:33:24;14.93;;;4.47;;
7845;SDS011;3968;51.424;6.788;2022-10-31T14:43:45;13.88;;;4.57;;
7845;SDS011;3968;51.424;6.788;2022-10-31T14:51:43;20.20;;;4.70;;
7845;SDS011;3968;51.424;6.788;2022-10-31T14:54:13;13.55;;;5.13;;
7845;SDS011;3968;51.424;6.788;2022-10-31T14:56:48;11.65;;;4.53;;
7845;SDS011;3968;51.424;6.788;2022-10-31T14:59:19;16.63;;;4.40;;
7845;SDS011;3968;51.424;6.788;2022-10-31T15:02:01;13.63;;;4.47;;
7845;SDS011;3968;51.424;6.788;2022-10-31T15:04:34;7.95;;;3.95;;
7845;SDS011;3968;51.424;6.788;2022-10-31T15:07:06;12.27;;;4.53;;
7845;SDS011;3968;51.424;6.788;2022-10-31T15:09:45;15.25;;;4.68;;
7845;SDS011;3968;51.424;6.788;2022-10-31T15:14:54;14.02;;;5.07;;
7845;SDS011;3968;51.424;6.788;2022-10-31T15:17:21;10.57;;;4.53;;
7845;SDS011;3968;51.424;6.788;2022-10-31T15:19:48;16.80;;;4.85;;
7845;SDS011;3968;51.424;6.788;2022-10-31T15:22:22;12.25;;;4.80;;
7845;SDS011;3968;51.424;6.788;2022-10-31T15:24:49;15.38;;;4.20;;
7845;SDS011;3968;51.424;6.788;2022-10-31T15:27:21;15.52;;;4.53;;
7845;SDS011;3968;51.424;6.788;2022-10-31T15:29:49;13.88;;;4.40;;
7845;SDS011;3968;51.424;6.788;2022-10-31T15:32:22;16.20;;;4.80;;
7845;SDS011;3968;51.424;6.788;2022-10-31T15:34:50;10.07;;;4.60;;
7845;SDS011;3968;51.424;6.788;2022-10-31T15:37:18;11.48;;;4.93;;
7845;SDS011;3968;51.424;6.788;2022-10-31T15:39:45;10.55;;;4.20;;
7845;SDS011;3968;51.424;6.788;2022-10-31T15:42:17;11.50;;;4.35;;
7845;SDS011;3968;51.424;6.788;2022-10-31T15:48:16;10.05;;;4.28;;
7845;SDS011;3968;51.424;6.788;2022-10-31T15:50:49;12.98;;;4.07;;
7845;SDS011;3968;51.424;6.788;2022-10-31T15:56:01;13.88;;;5.00;;
7845;SDS011;3968;51.424;6.788;2022-10-31T15:58:32;12.75;;;5.65;;
7845;SDS011;3968;51.424;6.788;2022-10-31T16:01:05;12.57;;;4.88;;
7845;SDS011;3968;51.424;6.788;2022-10-31T16:03:43;14.63;;;5.22;;
7845;SDS011;3968;51.424;6.788;2022-10-31T16:06:19;11.88;;;5.53;;
7845;SDS011;3968;51.424;6.788;2022-10-31T16:08:46;11.27;;;5.35;;
7845;SDS011;3968;51.424;6.788;2022-10-31T16:11:21;10.63;;;4.72;;
7845;SDS011;3968;51.424;6.788;2022-10-31T16:14:14;12.45;;;5.22;;
7845;SDS011;3968;51.424;6.788;2022-10-31T16:16:46;14.25;;;5.40;;
7845;SDS011;3968;51.424;6.788;2022-10-31T16:19:18;8.82;;;3.88;;
7845;SDS011;3968;51.424;6.788;2022-10-31T16:21:45;11.80;;;4.63;;
7845;SDS011;3968;51.424;6.788;2022-10-31T16:26:50;11.40;;;4.65;;
7845;SDS011;3968;51.424;6.788;2022-10-31T16:29:33;10.27;;;5.13;;
7845;SDS011;3968;51.424;6.788;2022-10-31T16:32:04;6.75;;;3.83;;
7845;SDS011;3968;51.424;6.788;2022-10-31T16:34:30;13.45;;;4.95;;
7845;SDS011;3968;51.424;6.788;2022-10-31T16:36:55;12.05;;;5.28;;
7845;SDS011;3968;51.424;6.788;2022-10-31T16:39:21;10.73;;;4.55;;
7845;SDS011;3968;51.424;6.788;2022-10-31T16:41:48;10.20;;;4.75;;
7845;SDS011;3968;51.424;6.788;2022-10-31T16:44:17;10.93;;;4.65;;
7845;SDS011;3968;51.424;6.788;2022-10-31T16:46:46;12.80;;;4.78;;
7845;SDS011;3968;51.424;6.788;2022-10-31T16:49:12;13.60;;;5.70;;
7845;SDS011;3968;51.424;6.788;2022-10-31T16:51:40;13.25;;;5.15;;
7845;SDS011;3968;51.424;6.788;2022-10-31T16:54:06;9.38;;;4.47;;
7845;SDS011;3968;51.424;6.788;2022-10-31T16:56:34;12.90;;;4.70;;
7845;SDS011;3968;51.424;6.788;2022-10-31T16:59:02;15.40;;;5.15;;
7845;SDS011;3968;51.424;6.788;2022-10-31T17:01:30;16.50;;;5.85;;
7845;SDS011;3968;51.424;6.788;2022-10-31T17:03:56;12.60;;;5.13;;
7845;SDS011;3968;51.424;6.788;2022-10-31T17:06:22;17.38;;;5.90;;
7845;SDS011;3968;51.424;6.788;2022-10-31T17:08:47;11.48;;;6.05;;
7845;SDS011;3968;51.424;6.788;2022-10-31T17:11:15;20.38;;;12.73;;
7845;SDS011;3968;51.424;6.788;2022-10-31T17:13:43;17.02;;;9.95;;
7845;SDS011;3968;51.424;6.788;2022-10-31T17:16:09;16.23;;;8.68;;
7845;SDS011;3968;51.424;6.788;2022-10-31T17:18:38;18.70;;;6.03;;
7845;SDS011;3968;51.424;6.788;2022-10-31T17:21:03;11.48;;;5.45;;
7845;SDS011;3968;51.424;6.788;2022-10-31T17:23:33;21.92;;;6.43;;
7845;SDS011;3968;51.424;6.788;2022-10-31T17:26:02;12.68;;;6.28;;
7845;SDS011;3968;51.424;6.788;2022-10-31T17:28:28;23.08;;;6.60;;
7845;SDS011;3968;51.424;6.788;2022-10-31T17:30:54;13.63;;;5.57;;
7845;SDS011;3968;51.424;6.788;2022-10-31T17:33:22;12.45;;;6.32;;
7845;SDS011;3968;51.424;6.788;2022-10-31T17:35:48;16.92;;;7.18;;
7845;SDS011;3968;51.424;6.788;2022-10-31T17:38:14;12.00;;;5.10;;
7845;SDS011;3968;51.424;6.788;2022-10-31T17:40:40;15.82;;;7.68;;
7845;SDS011;3968;51.424;6.788;2022-10-31T17:43:09;13.82;;;6.22;;
7845;SDS011;3968;51.424;6.788;2022-10-31T17:45:37;11.93;;;5.60;;
7845;SDS011;3968;51.424;6.788;2022-10-31T17:48:04;17.52;;;6.60;;
7845;SDS011;3968;51.424;6.788;2022-10-31T17:50:30;12.68;;;6.50;;
7845;SDS011;3968;51.424;6.788;2022-10-31T17:52:57;13.30;;;5.75;;
7845;SDS011;3968;51.424;6.788;2022-10-31T17:55:23;9.32;;;4.65;;
7845;SDS011;3968;51.424;6.788;2022-10-31T17:57:48;11.00;;;5.40;;
7845;SDS011;3968;51.424;6.788;2022-10-31T18:00:16;10.68;;;4.93;;
7845;SDS011;3968;51.424;6.788;2022-10-31T18:02:44;14.20;;;5.82;;
7845;SDS011;3968;51.424;6.788;2022-10-31T18:05:10;13.95;;;6.78;;
7845;SDS011;3968;51.424;6.788;2022-10-31T18:07:36;10.70;;;5.00;;
7845;SDS011;3968;51.424;6.788;2022-10-31T18:10:02;18.27;;;5.82;;
7845;SDS011;3968;51.424;6.788;2022-10-31T18:12:30;11.32;;;4.65;;
7845;SDS011;3968;51.424;6.788;2022-10-31T18:14:58;9.05;;;4.45;;
7845;SDS011;3968;51.424;6.788;2022-10-31T18:17:24;11.40;;;4.25;;
7845;SDS011;3968;51.424;6.788;2022-10-31T18:19:50;10.35;;;4.25;;
7845;SDS011;3968;51.424;6.788;2022-10-31T18:22:16;10.10;;;4.60;;
7845;SDS011;3968;51.424;6.788;2022-10-31T18:24:41;11.45;;;4.63;;
7845;SDS011;3968;51.424;6.788;2022-10-31T18:27:07;10.65;;;4.70;;
7845;SDS011;3968;51.424;6.788;2022-10-31T18:29:33;10.55;;;4.43;;
7845;SDS011;3968;51.424;6.788;2022-10-31T18:31:59;9.82;;;3.50;;
7845;SDS011;3968;51.424;6.788;2022-10-31T18:34:24;15.45;;;4.30;;
7845;SDS011;3968;51.424;6.788;2022-10-31T18:36:50;10.20;;;3.90;;
7845;SDS011;3968;51.424;6.788;2022-10-31T18:39:16;11.20;;;4.30;;
7845;SDS011;3968;51.424;6.788;2022-10-31T18:41:42;9.63;;;3.83;;
7845;SDS011;3968;51.424;6.788;2022-10-31T18:44:08;12.85;;;4.30;;
7845;SDS011;3968;51.424;6.788;2022-10-31T18:46:34;10.10;;;4.28;;
7845;SDS011;3968;51.424;6.788;2022-10-31T18:49:01;9.85;;;3.55;;
7845;SDS011;3968;51.424;6.788;2022-10-31T18:51:27;9.75;;;3.88;;